Time;durP1;ratioP1;P1;durP2;ratioP2;P2;SDS_P1;SDS_P2;PMS_P1;PMS_P2;Temp;Humidity;BMP_temperature;BMP_pressure;BME280_temperature;BME280_humidity;BME280_pressure;Samples;Min_cycle;Max_cycle;Signal;HPM_P1;HPM_P2
2023/04/24 00:02:37;;;;;;;0.73;0.65;;;;;;;9.81;100.00;99717.69;10333571;28;20057;-79
2023/04/24 00:07:39;;;;;;;0.43;0.40;;;;;;;9.68;100.00;99701.78;10314207;28;20070;-78
2023/04/24 00:12:40;;;;;;;0.50;0.45;;;;;;;9.42;100.00;99670.75;10275961;28;20327;-77
2023/04/24 00:17:42;;;;;;;1.42;0.50;;;;;;;9.47;100.00;99690.00;10289127;28;20050;-76
2023/04/24 00:22:43;;;;;;;1.65;0.90;;;;;;;9.24;100.00;99685.88;10311080;28;20085;-77
2023/04/24 00:27:43;;;;;;;2.00;0.80;;;;;;;9.14;100.00;99670.22;10353891;28;20029;-76
2023/04/24 00:32:45;;;;;;;1.27;0.60;;;;;;;9.17;100.00;99682.59;10358757;28;20442;-76
2023/04/24 00:37:46;;;;;;;1.95;1.13;;;;;;;8.74;100.00;99600.47;10356857;28;20034;-79
2023/04/24 00:42:46;;;;;;;1.80;1.20;;;;;;;9.11;100.00;99662.53;10342040;28;20116;-79
2023/04/24 00:47:52;;;;;;;2.22;1.52;;;;;;;9.34;100.00;99674.06;10345492;28;20187;-77
2023/04/24 00:52:52;;;;;;;2.25;1.77;;;;;;;9.32;100.00;99674.34;10349178;28;20192;-78
2023/04/24 00:57:55;;;;;;;3.33;2.40;;;;;;;9.22;100.00;99644.97;10402070;28;20068;-81
2023/04/24 01:02:55;;;;;;;2.70;2.10;;;;;;;9.25;100.00;99671.06;10379210;28;20133;-79
2023/04/24 01:07:57;;;;;;;3.35;2.85;;;;;;;9.20;100.00;99638.94;10378425;28;20029;-79
2023/04/24 01:12:58;;;;;;;5.80;3.70;;;;;;;9.25;100.00;99660.06;10345912;28;20061;-79
2023/04/24 01:17:58;;;;;;;6.65;4.05;;;;;;;9.16;100.00;99642.50;10366176;28;20056;-78
2023/04/24 01:23:00;;;;;;;5.43;4.07;;;;;;;9.07;100.00;99631.22;10354445;28;20076;-78
2023/04/24 01:28:07;;;;;;;5.57;4.70;;;;;;;9.22;100.00;99649.63;10338943;28;20041;-78
2023/04/24 01:33:07;;;;;;;7.30;4.45;;;;;;;9.17;100.00;99624.91;10346489;28;20390;-78
2023/04/24 01:38:08;;;;;;;7.18;5.18;;;;;;;9.24;100.00;99644.69;10336972;28;20046;-79
2023/04/24 01:43:09;;;;;;;6.65;4.63;;;;;;;8.84;100.00;99577.72;10337236;28;20049;-78
2023/04/24 01:48:10;;;;;;;7.28;4.53;;;;;;;9.13;100.00;99632.88;10356086;28;20069;-79
2023/04/24 01:53:11;;;;;;;4.57;3.83;;;;;;;9.21;100.00;99632.31;10337068;28;20037;-78
2023/04/24 01:58:13;;;;;;;4.57;3.65;;;;;;;9.25;100.00;99643.59;10339660;28;20039;-79
2023/04/24 02:03:13;;;;;;;5.13;3.95;;;;;;;9.23;100.00;99651.28;10329534;28;20035;-78
2023/04/24 02:08:14;;;;;;;4.63;3.63;;;;;;;9.16;100.00;99634.28;10329988;28;20066;-78
2023/04/24 02:13:15;;;;;;;5.53;4.50;;;;;;;9.07;100.00;99636.72;10318814;28;20049;-79
2023/04/24 02:18:16;;;;;;;8.27;6.38;;;;;;;9.00;100.00;99630.69;10291318;28;20517;-78
2023/04/24 02:23:17;;;;;;;7.25;5.30;;;;;;;9.11;100.00;99642.50;10350664;28;20380;-78
2023/04/24 02:28:18;;;;;;;8.13;6.03;;;;;;;9.11;100.00;99648.00;10349486;28;20065;-79
2023/04/24 02:33:19;;;;;;;8.05;5.97;;;;;;;8.84;100.00;99613.38;10332847;28;20037;-79
2023/04/24 02:38:22;;;;;;;10.77;8.40;;;;;;;9.03;100.00;99646.59;10345715;28;20042;-78
2023/04/24 02:43:22;;;;;;;11.35;9.13;;;;;;;9.00;100.00;99645.25;10362917;28;20042;-78
2023/04/24 02:48:24;;;;;;;12.73;10.50;;;;;;;8.84;100.00;99627.94;10323690;28;20482;-79
2023/04/24 02:53:25;;;;;;;13.40;10.93;;;;;;;9.02;100.00;99648.53;10346394;28;20034;-78
2023/04/24 02:58:25;;;;;;;12.70;9.63;;;;;;;8.96;100.00;99652.38;10330286;28;20038;-79
2023/04/24 03:03:26;;;;;;;12.45;10.25;;;;;;;8.98;100.00;99647.44;10340909;28;20038;-80
2023/04/24 03:08:27;;;;;;;11.38;10.07;;;;;;;8.93;100.00;99652.94;10358206;28;20053;-77
2023/04/24 03:13:27;;;;;;;10.73;9.35;;;;;;;8.93;100.00;99666.66;10358285;28;20046;-78
2023/04/24 03:18:27;;;;;;;12.13;10.40;;;;;;;8.83;100.00;99655.66;10331519;28;20065;-77
2023/04/24 03:23:28;;;;;;;11.45;9.20;;;;;;;8.90;100.00;99664.44;10338596;28;20038;-78
2023/04/24 03:28:29;;;;;;;10.85;8.63;;;;;;;8.87;100.00;99657.59;10342959;28;20049;-79
2023/04/24 03:33:29;;;;;;;11.10;9.90;;;;;;;8.84;100.00;99660.84;10357818;28;20053;-78
2023/04/24 03:38:31;;;;;;;10.85;9.68;;;;;;;8.83;100.00;99661.97;10354072;28;20041;-76
2023/04/24 03:43:34;;;;;;;11.93;9.93;;;;;;;8.86;100.00;99672.38;10333110;28;20052;-79
2023/04/24 03:48:35;;;;;;;11.40;9.25;;;;;;;8.70;100.00;99648.75;10319188;28;20046;-78
2023/04/24 03:53:35;;;;;;;11.63;9.15;;;;;;;8.68;100.00;99651.81;10342152;28;20065;-77
2023/04/24 03:58:37;;;;;;;11.40;8.95;;;;;;;8.81;100.00;99685.31;10333704;28;20034;-77
2023/04/24 04:03:38;;;;;;;13.77;10.57;;;;;;;8.81;100.00;99677.06;10333517;28;20030;-75
2023/04/24 04:08:38;;;;;;;11.32;9.57;;;;;;;8.77;100.00;99681.44;10333836;28;20397;-78
2023/04/24 04:13:40;;;;;;;14.07;9.73;;;;;;;8.72;100.00;99684.16;10334361;28;20069;-79
2023/04/24 04:18:40;;;;;;;10.98;8.98;;;;;;;8.59;100.00;99675.38;10297936;28;20042;-77
2023/04/24 04:23:41;;;;;;;11.50;9.90;;;;;;;8.66;100.00;99691.56;10337718;28;20031;-78
2023/04/24 04:28:42;;;;;;;10.98;8.75;;;;;;;8.57;100.00;99674.81;10329064;28;20034;-78
2023/04/24 04:33:46;;;;;;;10.38;8.80;;;;;;;8.69;100.00;99691.84;10319210;28;20402;-78
2023/04/24 04:38:46;;;;;;;10.57;8.85;;;;;;;8.52;100.00;99682.22;10309951;28;20048;-77
2023/04/24 04:43:48;;;;;;;12.65;8.35;;;;;;;8.68;100.00;99720.41;10349463;28;20045;-77
2023/04/24 04:48:48;;;;;;;12.00;9.55;;;;;;;8.71;100.00;99716.28;10318451;28;20034;-78
2023/04/24 04:53:49;;;;;;;9.02;7.65;;;;;;;8.36;100.00;99654.69;10332463;28;20031;-79
2023/04/24 04:58:49;;;;;;;9.98;8.25;;;;;;;8.67;100.00;99705.00;10317638;28;20046;-77
2023/04/24 05:03:50;;;;;;;10.55;8.68;;;;;;;7.36;100.00;99512.34;10290784;28;20050;-79
2023/04/24 05:08:51;;;;;;;10.57;8.13;;;;;;;8.64;100.00;99708.31;10287438;28;20093;-77
2023/04/24 05:13:51;;;;;;;10.80;8.43;;;;;;;8.79;100.00;99723.16;10293934;28;20055;-78
2023/04/24 05:18:52;;;;;;;10.63;8.40;;;;;;;8.87;100.00;99733.63;10295374;28;20486;-78
2023/04/24 05:23:52;;;;;;;14.90;9.18;;;;;;;8.71;100.00;99730.00;10292037;28;20042;-76
2023/04/24 05:28:53;;;;;;;11.15;8.07;;;;;;;8.75;100.00;99758.56;10274249;28;20030;-77
2023/04/24 05:33:53;;;;;;;8.60;6.93;;;;;;;8.73;100.00;99752.50;10300453;28;20101;-78
2023/04/24 05:38:54;;;;;;;10.05;7.30;;;;;;;8.66;100.00;99752.78;10347918;28;20070;-77
2023/04/24 05:43:55;;;;;;;10.32;8.07;;;;;;;8.73;100.00;99755.25;10330091;28;20047;-79
2023/04/24 05:48:55;;;;;;;10.73;7.40;;;;;;;8.85;100.00;99760.50;10346162;28;20045;-78
2023/04/24 05:53:56;;;;;;;10.38;7.43;;;;;;;8.52;100.00;99724.19;10329205;28;20031;-79
2023/04/24 05:58:56;;;;;;;11.73;7.30;;;;;;;8.77;100.00;99770.09;10302512;28;20581;-78
2023/04/24 06:03:57;;;;;;;11.75;7.63;;;;;;;8.81;100.00;99784.09;10309083;28;20065;-78
2023/04/24 06:08:58;;;;;;;11.45;7.47;;;;;;;8.61;100.00;99766.44;10312171;28;20053;-78
2023/04/24 06:13:59;;;;;;;13.00;7.32;;;;;;;8.65;100.00;99766.75;10345694;28;20030;-78
2023/04/24 06:18:59;;;;;;;10.55;7.43;;;;;;;8.81;100.00;99792.34;10329760;28;20034;-79
2023/04/24 06:24:00;;;;;;;12.60;8.07;;;;;;;8.74;100.00;99799.97;10346290;28;20042;-78
2023/04/24 06:29:00;;;;;;;10.07;7.18;;;;;;;8.88;100.00;99812.09;10330972;28;20034;-79
2023/04/24 06:34:01;;;;;;;10.68;7.28;;;;;;;8.55;100.00;99759.28;10297278;28;20038;-80
2023/04/24 06:39:02;;;;;;;11.48;7.18;;;;;;;8.99;100.00;99812.97;10286218;28;20066;-79
2023/04/24 06:44:02;;;;;;;11.90;7.72;;;;;;;9.04;100.00;99813.81;10355346;28;20044;-80
2023/04/24 06:49:03;;;;;;;11.20;7.78;;;;;;;8.84;100.00;99791.78;10409489;28;20042;-79
2023/04/24 06:54:03;;;;;;;11.57;7.70;;;;;;;8.89;100.00;99795.38;10377219;28;20045;-79
2023/04/24 06:59:04;;;;;;;9.13;6.35;;;;;;;9.07;100.00;99813.28;10376716;28;20037;-79
2023/04/24 07:04:04;;;;;;;9.88;6.60;;;;;;;8.97;100.00;99805.00;10385754;28;20073;-79
2023/04/24 07:09:05;;;;;;;10.35;6.07;;;;;;;9.08;100.00;99817.66;10361714;28;20038;-80
2023/04/24 07:14:05;;;;;;;10.40;6.85;;;;;;;9.22;100.00;99819.88;10306185;28;20034;-80
2023/04/24 07:19:06;;;;;;;13.02;7.45;;;;;;;9.22;100.00;99809.75;10321109;28;20050;-79
2023/04/24 07:24:10;;;;;;;12.00;8.13;;;;;;;9.27;100.00;99828.16;10322179;28;20041;-80
2023/04/24 07:29:10;;;;;;;10.50;6.47;;;;;;;9.35;100.00;99833.09;10357732;28;20038;-79
2023/04/24 07:34:11;;;;;;;9.57;4.97;;;;;;;9.48;100.00;99838.06;10322855;28;20045;-81
2023/04/24 07:39:12;;;;;;;5.97;4.00;;;;;;;9.44;100.00;99845.19;10355802;28;20041;-79
2023/04/24 07:44:12;;;;;;;7.53;4.55;;;;;;;9.53;100.00;99841.91;10374132;28;20064;-79
2023/04/24 07:49:13;;;;;;;8.35;4.78;;;;;;;9.55;100.00;99840.56;10342342;28;20077;-78
2023/04/24 07:54:13;;;;;;;8.93;5.07;;;;;;;9.61;100.00;99857.88;10340279;28;20057;-79
2023/04/24 07:59:14;;;;;;;7.75;5.28;;;;;;;9.75;100.00;99858.97;10356122;28;20034;-80
2023/04/24 08:04:14;;;;;;;10.18;6.15;;;;;;;9.59;100.00;99824.34;10385564;28;20038;-78
2023/04/24 08:09:15;;;;;;;9.23;5.03;;;;;;;9.69;100.00;99879.31;10355028;28;20034;-79
2023/04/24 08:14:15;;;;;;;8.85;5.85;;;;;;;9.27;100.00;99815.22;10339014;28;20484;-79
2023/04/24 08:19:16;;;;;;;10.63;5.75;;;;;;;9.72;100.00;99889.78;10353316;28;20054;-80
2023/04/24 08:24:16;;;;;;;11.38;6.43;;;;;;;9.41;100.00;99840.25;10339370;28;20041;-80
2023/04/24 08:29:17;;;;;;;13.02;6.93;;;;;;;9.82;100.00;99899.97;10355922;28;20038;-80
2023/04/24 08:34:17;;;;;;;7.68;5.35;;;;;;;9.71;100.00;99910.09;10340076;28;20030;-80
2023/04/24 08:39:18;;;;;;;6.65;3.50;;;;;;;9.48;100.00;99922.41;10353910;28;20132;-80
2023/04/24 08:44:18;;;;;;;6.82;3.97;;;;;;;9.42;100.00;99923.50;10344291;28;20034;-80
2023/04/24 08:49:19;;;;;;;8.70;3.58;;;;;;;9.53;100.00;99940.84;10372008;28;20038;-80
2023/04/24 08:54:19;;;;;;;10.45;4.75;;;;;;;9.46;100.00;99952.09;10306185;28;20038;-81
2023/04/24 08:59:20;;;;;;;12.48;7.75;;;;;;;9.29;100.00;99952.31;10312999;28;20122;-77
2023/04/24 09:04:21;;;;;;;18.75;10.85;;;;;;;8.99;100.00;99964.81;10327879;28;20042;-78
2023/04/24 09:09:22;;;;;;;24.13;12.88;;;;;;;8.82;100.00;99950.41;10311558;28;20046;-78
2023/04/24 09:14:23;;;;;;;30.83;14.95;;;;;;;8.88;100.00;99990.53;10328610;28;20439;-78
2023/04/24 09:19:24;;;;;;;33.42;18.25;;;;;;;8.89;100.00;99997.69;10296922;28;20097;-78
2023/04/24 09:24:24;;;;;;;35.10;17.08;;;;;;;8.81;100.00;99998.19;10328634;28;20049;-78
2023/04/24 09:29:25;;;;;;;33.50;17.85;;;;;;;8.69;100.00;99981.91;10326573;28;20038;-78
2023/04/24 09:34:26;;;;;;;35.50;18.33;;;;;;;8.51;100.00;99996.03;10327721;28;20053;-75
2023/04/24 09:39:27;;;;;;;38.92;16.50;;;;;;;8.39;100.00;99999.75;10280070;28;20042;-77
2023/04/24 09:44:28;;;;;;;35.38;16.02;;;;;;;8.50;100.00;100038.28;10305034;28;20043;-77
2023/04/24 09:49:29;;;;;;;33.95;16.42;;;;;;;8.44;100.00;100048.38;10291577;28;20039;-77
2023/04/24 09:54:30;;;;;;;31.50;15.68;;;;;;;8.26;100.00;100052.28;10305898;28;20063;-77
2023/04/24 09:59:30;;;;;;;31.55;16.98;;;;;;;8.27;100.00;100057.50;10305787;28;20035;-77
2023/04/24 10:04:31;;;;;;;28.38;16.23;;;;;;;8.26;100.00;100080.50;10305904;28;20038;-77
2023/04/24 10:09:31;;;;;;;25.75;15.50;;;;;;;8.29;100.00;100066.28;10308961;28;20043;-77
2023/04/24 10:14:32;;;;;;;27.20;14.43;;;;;;;8.31;100.00;100084.38;10328995;28;20037;-77
2023/04/24 10:19:32;;;;;;;33.25;15.20;;;;;;;8.31;100.00;100100.84;10331145;28;20042;-77
2023/04/24 10:24:33;;;;;;;23.73;13.27;;;;;;;8.37;100.00;100105.31;10312595;28;20042;-77
2023/04/24 10:29:34;;;;;;;24.83;13.85;;;;;;;8.57;100.00;100111.03;10327332;28;20050;-78
2023/04/24 10:34:34;;;;;;;25.35;13.32;;;;;;;8.31;100.00;100104.44;10312912;28;20121;-77
2023/04/24 10:39:37;;;;;;;18.90;11.70;;;;;;;8.21;100.00;100129.00;10296428;28;20043;-77
2023/04/24 10:44:37;;;;;;;19.52;10.60;;;;;;;7.94;100.00;100139.91;10355426;28;20586;-77
2023/04/24 10:49:38;;;;;;;22.38;11.63;;;;;;;8.00;100.00;100155.31;10359703;28;20142;-77
2023/04/24 10:54:44;;;;;;;25.25;11.98;;;;;;;7.89;100.00;100138.75;10374866;28;20049;-77
2023/04/24 10:59:44;;;;;;;20.25;10.50;;;;;;;8.07;100.00;100170.50;10324148;28;20099;-78
2023/04/24 11:04:46;;;;;;;15.77;8.88;;;;;;;8.04;100.00;100151.00;10357738;28;20061;-77
2023/04/24 11:09:46;;;;;;;24.45;9.30;;;;;;;8.23;100.00;100187.16;10353667;28;20038;-78
2023/04/24 11:14:56;;;;;;;16.25;7.40;;;;;;;8.43;100.00;100183.84;10307867;28;20038;-78
2023/04/24 11:20:04;;;;;;;19.10;5.97;;;;;;;8.60;100.00;100203.81;10358065;28;20046;-79
2023/04/24 11:25:04;;;;;;;13.02;4.90;;;;;;;8.52;100.00;100196.03;10374412;28;20044;-78
2023/04/24 11:30:05;;;;;;;10.70;4.90;;;;;;;8.57;100.00;100187.84;10373710;28;20053;-77
2023/04/24 11:35:20;;;;;;;10.25;4.28;;;;;;;8.72;100.00;100186.34;10324139;28;20104;-78
2023/04/24 11:40:28;;;;;;;11.77;4.38;;;;;;;8.76;100.00;100203.97;10373225;28;20045;-77
2023/04/24 11:45:29;;;;;;;7.07;2.85;;;;;;;8.74;100.00;100197.91;10342894;28;20671;-77
2023/04/24 11:50:30;;;;;;;8.57;2.55;;;;;;;8.61;100.00;100221.09;10340166;28;20034;-76
2023/04/24 11:55:30;;;;;;;6.53;2.80;;;;;;;8.50;100.00;100225.63;10340731;28;20064;-77
2023/04/24 12:00:33;;;;;;;8.30;2.20;;;;;;;8.47;100.00;100239.84;10372305;28;20552;-77
2023/04/24 12:05:34;;;;;;;11.90;3.28;;;;;;;8.43;100.00;100241.44;10409202;28;20508;-77
2023/04/24 12:10:35;;;;;;;7.20;2.25;;;;;;;8.37;100.00;100236.94;10365320;28;20057;-77
2023/04/24 12:15:35;;;;;;;7.75;2.92;;;;;;;8.25;100.00;100180.34;10355157;28;20060;-77
2023/04/24 12:20:35;;;;;;;12.27;3.55;;;;;;;8.71;100.00;100254.13;10373107;28;20453;-77
2023/04/24 12:25:38;;;;;;;6.55;2.97;;;;;;;8.63;100.00;100254.59;10372970;28;20512;-77
2023/04/24 12:30:48;;;;;;;7.85;2.05;;;;;;;8.84;100.00;100261.13;10355258;28;20061;-77
2023/04/24 12:35:53;;;;;;;8.50;2.28;;;;;;;9.18;100.00;100266.44;10355430;28;20098;-77
2023/04/24 12:41:06;;;;;;;9.30;2.42;;;;;;;9.00;100.00;100271.19;10353416;28;20037;-77
2023/04/24 12:46:07;;;;;;;5.10;1.60;;;;;;;8.78;100.00;100282.19;10351019;28;20065;-77
2023/04/24 12:51:07;;;;;;;4.65;1.38;;;;;;;8.44;100.00;100295.25;10370238;28;20048;-76
2023/04/24 12:56:08;;;;;;;7.97;2.50;;;;;;;8.20;100.00;100284.44;10338262;28;20041;-77
2023/04/24 13:01:08;;;;;;;12.50;5.40;;;;;;;8.28;100.00;100300.47;10335203;28;20049;-77
2023/04/24 13:06:09;;;;;;;8.57;1.35;;;;;;;7.88;100.00;100230.28;10349457;28;20042;-77
2023/04/24 13:11:09;;;;;;;8.02;1.23;;;;;;;8.60;100.00;100319.06;10366871;28;20096;-77
2023/04/24 13:16:10;;;;;;;4.60;1.00;;;;;;;8.75;100.00;100309.34;10334712;28;20046;-77
2023/04/24 13:21:10;;;;;;;3.72;1.08;;;;;;;9.09;100.00;100321.81;10351792;28;20045;-77
2023/04/24 13:26:11;;;;;;;4.53;1.00;;;;;;;9.08;100.00;100314.66;10369434;28;20041;-76
2023/04/24 13:31:11;;;;;;;3.20;1.35;;;;;;;9.15;100.00;100316.38;10370131;28;20100;-77
2023/04/24 13:36:12;;;;;;;2.13;0.82;;;;;;;9.12;100.00;100319.66;10353070;28;20038;-76
2023/04/24 13:41:12;;;;;;;5.65;0.90;;;;;;;9.06;100.00;100321.50;10370739;28;20049;-76
2023/04/24 13:46:13;;;;;;;5.32;0.98;;;;;;;8.82;100.00;100348.41;10351552;28;20045;-76
2023/04/24 13:51:13;;;;;;;5.57;1.10;;;;;;;8.63;100.00;100340.47;10329705;28;20042;-77
2023/04/24 13:56:14;;;;;;;10.23;1.50;;;;;;;8.71;100.00;100349.38;10330238;28;20077;-77
2023/04/24 14:01:15;;;;;;;7.75;0.80;;;;;;;8.67;100.00;100336.13;10328502;28;20049;-77
2023/04/24 14:06:15;;;;;;;4.63;0.88;;;;;;;8.62;100.00;100340.72;10312385;28;20042;-77
2023/04/24 14:11:16;;;;;;;5.10;1.25;;;;;;;8.65;100.00;100330.06;10343764;28;20057;-78
2023/04/24 14:16:16;;;;;;;6.57;1.27;;;;;;;8.71;100.00;100330.97;10317813;28;20038;-77
2023/04/24 14:21:17;;;;;;;6.78;0.85;;;;;;;8.89;100.00;100349.88;10319516;28;20046;-76
2023/04/24 14:26:17;;;;;;;8.77;1.65;;;;;;;9.10;100.00;100341.88;10334748;28;20088;-76
2023/04/24 14:31:18;;;;;;;7.00;1.13;;;;;;;9.06;100.00;100338.81;10372528;28;20034;-77
2023/04/24 14:36:18;;;;;;;4.63;1.80;;;;;;;8.73;100.00;100350.75;10375998;28;20046;-76
2023/04/24 14:41:19;;;;;;;3.17;0.80;;;;;;;8.65;100.00;100343.78;10341593;28;20045;-76
2023/04/24 14:46:19;;;;;;;1.85;0.80;;;;;;;8.36;100.00;100356.81;10375640;28;20030;-77
2023/04/24 14:51:20;;;;;;;2.15;0.88;;;;;;;8.27;100.00;100381.09;10374596;28;20587;-76
2023/04/24 14:56:20;;;;;;;3.35;1.00;;;;;;;8.28;100.00;100399.19;10377108;28;20281;-77
2023/04/24 15:01:21;;;;;;;5.18;1.70;;;;;;;8.21;100.00;100392.25;10343492;28;20649;-77
2023/04/24 15:06:21;;;;;;;9.38;1.85;;;;;;;7.95;100.00;100399.22;10358823;28;20042;-75
2023/04/24 15:11:22;;;;;;;9.18;2.10;;;;;;;7.59;100.00;100347.38;10357614;28;20049;-77
2023/04/24 15:16:23;;;;;;;9.15;2.58;;;;;;;8.15;100.00;100387.78;10357021;28;20034;-77
2023/04/24 15:21:24;;;;;;;10.05;2.97;;;;;;;8.47;100.00;100401.72;10342050;28;20034;-77
2023/04/24 15:26:24;;;;;;;9.30;2.22;;;;;;;8.54;100.00;100402.38;10376500;28;20048;-77
2023/04/24 15:31:25;;;;;;;7.07;2.05;;;;;;;8.68;100.00;100406.41;10358778;28;20048;-77
2023/04/24 15:36:26;;;;;;;9.65;2.70;;;;;;;8.69;100.00;100405.31;10326258;28;20052;-78
2023/04/24 15:41:26;;;;;;;6.35;2.47;;;;;;;8.55;100.00;100404.03;10357710;28;20042;-77
2023/04/24 15:46:27;;;;;;;17.60;3.80;;;;;;;8.26;100.00;100412.34;10374724;28;20045;-77
2023/04/24 15:51:27;;;;;;;8.85;2.92;;;;;;;8.27;100.00;100419.50;10374937;28;20038;-77
2023/04/24 15:56:27;;;;;;;17.55;3.05;;;;;;;8.19;100.00;100399.91;10374261;28;20022;-77
2023/04/24 16:01:30;;;;;;;9.90;2.88;;;;;;;8.06;100.00;100417.50;10356932;28;20037;-77
2023/04/24 16:06:30;;;;;;;11.57;2.92;;;;;;;8.17;100.00;100434.97;10356405;28;20057;-77
2023/04/24 16:11:32;;;;;;;8.13;2.65;;;;;;;8.15;100.00;100426.16;10372911;28;20041;-78
2023/04/24 16:16:32;;;;;;;14.90;3.85;;;;;;;8.09;100.00;100436.19;10342592;28;20440;-77
2023/04/24 16:21:33;;;;;;;10.85;3.47;;;;;;;7.89;100.00;100440.22;10373793;28;20073;-77
2023/04/24 16:26:33;;;;;;;18.95;5.05;;;;;;;7.74;100.00;100425.44;10340264;28;20039;-78
2023/04/24 16:31:34;;;;;;;14.10;3.90;;;;;;;7.81;100.00;100446.16;10372633;28;20041;-78
2023/04/24 16:36:35;;;;;;;11.05;3.67;;;;;;;7.67;100.00;100453.84;10372177;28;20510;-78
2023/04/24 16:41:35;;;;;;;12.00;3.40;;;;;;;7.60;100.00;100452.31;10322566;28;20142;-78
2023/04/24 16:46:36;;;;;;;11.05;3.15;;;;;;;6.98;100.00;100352.53;10357451;28;20186;-78
2023/04/24 16:51:37;;;;;;;11.43;4.47;;;;;;;7.45;100.00;100430.94;10337327;28;20038;-77
2023/04/24 16:56:37;;;;;;;10.30;4.35;;;;;;;7.74;100.00;100481.06;10360568;28;20060;-78
2023/04/24 17:01:38;;;;;;;11.15;3.92;;;;;;;7.50;100.00;100435.69;10360270;28;20042;-77
2023/04/24 17:06:38;;;;;;;12.15;4.00;;;;;;;7.64;100.00;100464.44;10325566;28;20045;-78
2023/04/24 17:11:39;;;;;;;11.90;4.30;;;;;;;7.79;100.00;100467.50;10339200;28;20048;-78
2023/04/24 17:16:40;;;;;;;15.75;4.32;;;;;;;7.37;100.00;100432.16;10360490;28;20106;-78
2023/04/24 17:21:40;;;;;;;14.27;4.90;;;;;;;7.29;100.00;100451.72;10366474;28;20168;-77
2023/04/24 17:26:41;;;;;;;15.77;5.88;;;;;;;7.50;100.00;100484.97;10388369;28;20038;-76
2023/04/24 17:31:41;;;;;;;12.52;4.50;;;;;;;7.41;100.00;100485.38;10364373;28;20034;-77
2023/04/24 17:36:41;;;;;;;5.88;2.95;;;;;;;7.41;100.00;100490.84;10372535;28;20038;-77
2023/04/24 17:41:43;;;;;;;10.77;3.95;;;;;;;7.35;100.00;100483.59;10359267;28;20061;-77
2023/04/24 17:46:43;;;;;;;7.97;4.78;;;;;;;7.23;100.00;100491.84;10391601;28;20041;-77
2023/04/24 17:51:44;;;;;;;8.02;3.45;;;;;;;7.23;100.00;100480.88;10361164;28;20060;-78
2023/04/24 17:56:45;;;;;;;10.80;3.17;;;;;;;7.23;100.00;100496.50;10375316;28;20037;-77
2023/04/24 18:01:45;;;;;;;7.38;2.10;;;;;;;7.12;100.00;100497.34;10374637;28;20536;-77
2023/04/24 18:06:46;;;;;;;3.95;2.22;;;;;;;7.06;100.00;100519.13;10398679;28;20049;-78
2023/04/24 18:11:48;;;;;;;5.00;2.25;;;;;;;6.97;100.00;100528.78;10408774;28;20057;-77
2023/04/24 18:16:48;;;;;;;5.05;2.15;;;;;;;6.74;100.00;100515.94;10376783;28;20026;-77
2023/04/24 18:21:49;;;;;;;7.65;3.20;;;;;;;6.74;100.00;100543.31;10331174;28;20045;-77
2023/04/24 18:26:50;;;;;;;5.50;2.70;;;;;;;6.53;100.00;100514.63;10373573;28;20053;-78
2023/04/24 18:31:50;;;;;;;8.48;2.28;;;;;;;6.34;100.00;100504.84;10364933;28;20053;-77
2023/04/24 18:36:53;;;;;;;7.78;2.67;;;;;;;6.55;100.00;100537.13;10362686;28;20053;-78
2023/04/24 18:41:54;;;;;;;5.20;3.00;;;;;;;6.62;100.00;100562.44;10376037;28;20124;-80
2023/04/24 18:46:55;;;;;;;7.63;3.00;;;;;;;6.63;100.00;100569.56;10303802;28;20049;-81
2023/04/24 18:51:56;;;;;;;5.00;2.85;;;;;;;6.65;100.00;100586.56;10335135;28;20432;-82
2023/04/24 18:57:03;;;;;;;5.78;3.33;;;;;;;6.38;100.00;100531.47;10328244;28;20104;-80
2023/04/24 19:02:03;;;;;;;8.73;3.10;;;;;;;6.69;100.00;100588.84;10345373;28;20042;-80
2023/04/24 19:07:04;;;;;;;6.47;2.70;;;;;;;6.68;100.00;100598.97;10305144;28;20718;-82
2023/04/24 19:12:06;;;;;;;4.97;2.63;;;;;;;6.62;100.00;100589.78;10330190;28;21595;-81
2023/04/24 19:17:09;;;;;;;6.53;2.42;;;;;;;6.59;100.00;100603.91;10344048;28;20050;-83
2023/04/24 19:22:10;;;;;;;5.65;2.63;;;;;;;5.48;100.00;100444.94;10316271;28;20104;-82
2023/04/24 19:27:12;;;;;;;5.80;2.97;;;;;;;6.54;100.00;100608.44;10315456;28;20080;-82
2023/04/24 19:32:13;;;;;;;5.97;3.35;;;;;;;5.50;100.00;100441.97;10338208;28;20034;-82
2023/04/24 19:37:13;;;;;;;10.45;3.60;;;;;;;6.42;100.00;100616.63;10389007;28;20034;-81
2023/04/24 19:42:14;;;;;;;9.52;3.55;;;;;;;6.32;100.00;100613.59;10274505;28;20041;-82
2023/04/24 19:47:15;;;;;;;5.93;3.30;;;;;;;6.25;100.00;100610.97;10330177;28;20076;-81
2023/04/24 19:52:15;;;;;;;11.13;3.78;;;;;;;5.86;100.00;100559.31;10344949;28;20084;-80
2023/04/24 19:57:17;;;;;;;10.40;5.07;;;;;;;6.26;100.00;100629.88;10365640;28;20434;-79
2023/04/24 20:02:18;;;;;;;15.52;4.22;;;;;;;6.45;100.00;100627.09;10365363;28;20101;-78
2023/04/24 20:07:19;;;;;;;8.57;4.53;;;;;;;6.54;100.00;100625.69;10379536;28;20045;-78
2023/04/24 20:12:20;;;;;;;8.90;4.20;;;;;;;6.60;100.00;100630.22;10370788;28;20041;-78
2023/04/24 20:17:20;;;;;;;11.60;4.75;;;;;;;6.60;100.00;100613.00;10368285;28;20053;-77
2023/04/24 20:22:21;;;;;;;11.75;5.20;;;;;;;6.68;100.00;100620.84;10377094;28;20072;-79
2023/04/24 20:27:21;;;;;;;10.93;5.47;;;;;;;6.66;100.00;100626.56;10376710;28;20029;-78
2023/04/24 20:32:21;;;;;;;17.92;5.93;;;;;;;6.45;100.00;100589.66;10365806;28;20157;-77
2023/04/24 20:37:23;;;;;;;11.20;5.57;;;;;;;6.73;100.00;100625.63;10377166;28;20040;-78
2023/04/24 20:42:24;;;;;;;14.02;4.70;;;;;;;6.70;100.00;100624.19;10391901;28;20049;-79
2023/04/24 20:47:24;;;;;;;9.63;4.03;;;;;;;6.66;100.00;100631.19;10347041;28;20049;-78
2023/04/24 20:52:26;;;;;;;10.15;4.25;;;;;;;6.67;100.00;100647.34;10343563;28;20495;-78
2023/04/24 20:57:27;;;;;;;9.40;3.75;;;;;;;6.54;100.00;100633.91;10318067;28;20030;-77
2023/04/24 21:02:27;;;;;;;13.63;5.53;;;;;;;6.49;100.00;100628.31;10339365;28;20033;-78
2023/04/24 21:07:28;;;;;;;22.83;6.93;;;;;;;6.14;100.00;100623.53;10346365;28;20034;-78
2023/04/24 21:12:28;;;;;;;20.45;4.70;;;;;;;6.69;100.00;100676.41;10344842;28;20079;-77
2023/04/24 21:17:29;;;;;;;16.23;5.53;;;;;;;6.71;100.00;100674.25;10328183;28;20034;-79
2023/04/24 21:22:30;;;;;;;20.92;6.68;;;;;;;6.76;100.00;100677.13;10359553;28;20064;-77
2023/04/24 21:27:30;;;;;;;38.25;9.75;;;;;;;6.32;100.00;100606.22;10408607;28;20053;-76
2023/04/24 21:32:31;;;;;;;35.22;7.43;;;;;;;5.57;100.00;100508.25;10328853;28;20041;-77
2023/04/24 21:37:34;;;;;;;37.95;8.75;;;;;;;6.78;100.00;100680.44;10365161;28;20037;-79
2023/04/24 21:42:36;;;;;;;32.20;7.93;;;;;;;6.58;100.00;100670.66;10338824;28;20097;-78
2023/04/24 21:47:37;;;;;;;51.35;9.40;;;;;;;6.59;100.00;100701.56;10354100;28;20037;-77
2023/04/24 21:52:37;;;;;;;39.40;7.15;;;;;;;6.39;100.00;100685.47;10366614;28;20041;-77
2023/04/24 21:57:38;;;;;;;28.85;6.38;;;;;;;6.32;100.00;100698.38;10353496;28;20030;-77
2023/04/24 22:02:41;;;;;;;27.77;7.40;;;;;;;6.24;100.00;100681.22;10383086;28;20072;-78
2023/04/24 22:07:45;;;;;;;37.72;6.78;;;;;;;6.33;100.00;100700.88;10345446;28;20523;-79
2023/04/24 22:12:47;;;;;;;29.75;7.53;;;;;;;6.33;100.00;100711.81;10367376;28;20083;-78
2023/04/24 22:17:48;;;;;;;54.50;10.27;;;;;;;6.39;100.00;100721.00;10324551;28;20413;-78
2023/04/24 22:22:49;;;;;;;29.33;6.40;;;;;;;6.36;100.00;100727.75;10334605;28;20026;-79
2023/04/24 22:27:49;;;;;;;26.63;5.93;;;;;;;6.32;100.00;100731.19;10358168;28;20638;-78
2023/04/24 22:32:50;;;;;;;26.58;6.70;;;;;;;6.13;100.00;100717.53;10375966;28;20045;-78
2023/04/24 22:37:54;;;;;;;23.70;5.32;;;;;;;6.13;100.00;100733.09;10397209;28;20145;-77
2023/04/24 22:42:55;;;;;;;21.77;5.20;;;;;;;6.13;100.00;100728.44;10316075;28;20029;-78
2023/04/24 22:47:55;;;;;;;22.58;4.18;;;;;;;6.17;100.00;100746.06;10378056;28;20037;-78
2023/04/24 22:52:56;;;;;;;23.60;5.05;;;;;;;6.10;100.00;100734.41;10368518;28;20048;-78
2023/04/24 22:57:56;;;;;;;20.40;6.35;;;;;;;6.07;100.00;100743.84;10371514;28;20489;-77